« ひだエアパークスカイホリデー 飛騨農場離着陸場 2014/9/28 sun | トップページ | 定点 富山空港 2014/10/2 thu »

2014/10/01

大熊猫 富山空港 2014/10/1 wed

ちゃんと河原を見に来たのが、1ケ月ぶりになってしまった。本日は、小矢部で富山県国民保護共同実働訓練があるが、その参加機が見れるかも・・ と、やってきた。

RJNT 010200Z 35008KT 320V030 9999 SCT030 22/15 Q1017

20141001_rjnt_00ja811a

と、言っても着いたのは11時をまわっていた。

20141001_rjnt_01b6039

CSN614 RJNT-ZYTL B-6039 A319-132

20141001_rjnt_02ja811a

20141001_rjnt_03ja811a

ANA886 RJNT-RJTT JA811A B787-8

RJNT 010300Z 36004KT 290V100 9999 SCT030 23/16 Q1016

20141001_rjnt_04ja6768

参加予定の富山県防災航空センターを見に行ったら、思ったより早く出庫してきた。

20141001_rjnt_05ja6768

なになに、アクチャルミッションの模様。

20141001_rjnt_06ja6768

エンジン始動して・・

20141001_rjnt_07ja6768

離陸ぅ! ここまで、8分はゃ!

JA6768 B412 富山県消防防災

RJNT 010400Z 01010KT 340V040 9999 FEW025 SCT035 23/15 Q1016

20141001_rjnt_08ja6769

しばらくすると警察格納庫が開いて、県警へりも出庫。

20141001_rjnt_09ja6769

ん、こちらが訓練参加なのか?

20141001_rjnt_10ja6769

エンジン始動!

20141001_rjnt_11ja6769

どうやら、これは他の訓練の模様でした。

JA6769 A109K2 富山県警察

20141001_rjnt_12ja6768

ほどなく、病院に救助者を降ろして帰ってきた。

20141001_rjnt_13ja6768

20141001_rjnt_14ja6768

なんか、すぐお片づけ。小矢部の訓練参加はキャンセルのようです。

RJNT 010500Z 01011KT 9999 FEW025 SCT035 23/15 Q1016

20141001_rjnt_15ja6769

対岸に渡ったところで、警察へりが帰ってきた。

20141001_rjnt_16ja300k

20141001_rjnt_17ja300k

ADO121 RJNT-RJCC JA300K B737-54K

20141001_rjnt_18ja606a

さてー、本日皆が密かに動向を監視していたANA885。お鼻が・・

20141001_rjnt_19ja606a

はい、FLY!PANDA です。嬉しいサークリングRW02。

20141001_rjnt_20ja606a

20141001_rjnt_21ja606a

20141001_rjnt_22ja606a

20141001_rjnt_23ja606a

20141001_rjnt_24ja606a

20141001_rjnt_25ja606a

20141001_rjnt_26ja606a

ANA885 RJTT-RJNT JA606A B767-381ER

RJNT 010600Z 35011KT 9999 FEW025 SCT035 23/16 Q1016

小生は、残念ながら所要があって河原を離脱。後は、河原トンボの皆さんをご覧あれ。

RJTT-RJNT
ANA     /882 JA8290
ANA881/884 JA8670
ANA883/886 JA811A
ANA885/888 JA606A
ANA887/890 JA825A
ANA889/892 JA8368
ANA891       JA8291

RJCC-RJNT
ADO120/121 JA300K

ZYTL-RJNT
CSN613/614 B-6039

|

« ひだエアパークスカイホリデー 飛騨農場離着陸場 2014/9/28 sun | トップページ | 定点 富山空港 2014/10/2 thu »

富山空港」カテゴリの記事

コメント

コメントを書く



(ウェブ上には掲載しません)


コメントは記事投稿者が公開するまで表示されません。



トラックバック


この記事へのトラックバック一覧です: 大熊猫 富山空港 2014/10/1 wed:

« ひだエアパークスカイホリデー 飛騨農場離着陸場 2014/9/28 sun | トップページ | 定点 富山空港 2014/10/2 thu »